createdAt,value
2018-05-27T00:00:00.222Z,4.60
2018-05-27T00:02:28.267Z,3.87
2018-05-27T00:05:16.545Z,6.10
2018-05-27T00:07:44.192Z,5.67
2018-05-27T00:10:13.892Z,5.03
2018-05-27T00:12:42.310Z,3.50
2018-05-27T00:15:15.845Z,5.47
2018-05-27T00:17:44.269Z,3.40
2018-05-27T00:20:14.388Z,3.93
2018-05-27T00:22:42.054Z,4.87
2018-05-27T00:25:19.589Z,3.53
2018-05-27T00:27:47.621Z,6.17
2018-05-27T00:30:19.070Z,3.43
2018-05-27T00:32:47.594Z,5.60
2018-05-27T00:35:15.643Z,4.53
2018-05-27T00:37:44.054Z,3.53
2018-05-27T00:40:12.169Z,4.90
2018-05-27T00:42:40.181Z,3.30
2018-05-27T00:45:17.785Z,6.53
2018-05-27T00:47:45.796Z,4.83
2018-05-27T00:50:32.215Z,3.50
2018-05-27T00:53:00.247Z,3.37
2018-05-27T00:55:32.075Z,5.33
2018-05-27T00:58:00.515Z,7.90
2018-05-27T01:00:28.297Z,4.10
2018-05-27T01:02:56.707Z,6.27
2018-05-27T01:05:28.215Z,4.97
2018-05-27T01:07:56.249Z,4.17
2018-05-27T01:10:33.936Z,4.43
2018-05-27T01:13:02.050Z,3.30
2018-05-27T01:15:49.169Z,6.43
2018-05-27T01:18:17.227Z,3.70
2018-05-27T01:20:45.673Z,5.43
2018-05-27T01:23:13.756Z,5.40
2018-05-27T01:25:48.330Z,4.93
2018-05-27T01:28:16.008Z,5.13
2018-05-27T01:30:49.956Z,5.13
2018-05-27T01:33:17.786Z,4.90
2018-05-27T01:35:54.025Z,6.97
2018-05-27T01:38:21.723Z,4.00
2018-05-27T01:41:02.127Z,5.10
2018-05-27T01:43:30.595Z,6.50
2018-05-27T01:45:59.362Z,4.13
2018-05-27T01:48:27.531Z,4.70
2018-05-27T01:51:11.834Z,6.90
2018-05-27T01:53:39.637Z,5.00
2018-05-27T01:56:24.042Z,5.40
2018-05-27T01:58:52.215Z,5.97
2018-05-27T02:01:33.900Z,5.60
2018-05-27T02:04:02.001Z,5.83
2018-05-27T02:06:40.471Z,6.43
2018-05-27T02:09:08.162Z,4.40
2018-05-27T02:11:42.674Z,6.47
2018-05-27T02:14:10.745Z,4.50
2018-05-27T02:16:47.210Z,6.47
2018-05-27T02:19:15.608Z,6.67
2018-05-27T02:22:08.887Z,5.90
2018-05-27T02:24:36.972Z,5.87
2018-05-27T02:27:24.243Z,5.20
2018-05-27T02:29:52.049Z,5.83
2018-05-27T02:32:21.468Z,5.90
2018-05-27T02:34:49.114Z,5.50
2018-05-27T02:37:22.770Z,7.17
2018-05-27T02:39:50.416Z,5.50
2018-05-27T02:42:25.545Z,5.20
2018-05-27T02:44:53.243Z,10.23
2018-05-27T02:47:26.143Z,6.37
2018-05-27T02:49:54.542Z,6.30
2018-05-27T02:52:23.952Z,6.50
2018-05-27T02:54:51.608Z,6.63
2018-05-27T02:57:20.633Z,7.47
2018-05-27T02:59:49.238Z,5.27
2018-05-27T03:02:20.568Z,5.80
2018-05-27T03:04:49.020Z,8.33
2018-05-27T03:07:17.624Z,6.30
2018-05-27T03:09:46.834Z,5.60
2018-05-27T03:15:18.703Z,7.77
2018-05-27T03:17:46.351Z,8.53
2018-05-27T03:20:16.003Z,6.33
2018-05-27T03:22:44.061Z,6.43
2018-05-27T03:25:18.499Z,8.37
2018-05-27T03:27:46.185Z,7.57
2018-05-27T03:30:15.643Z,6.90
2018-05-27T03:32:43.714Z,6.30
2018-05-27T03:35:15.465Z,6.67
2018-05-27T03:37:43.141Z,7.47
2018-05-27T03:40:12.905Z,7.73
2018-05-27T03:42:40.611Z,6.60
2018-05-27T03:45:32.766Z,6.33
2018-05-27T03:48:01.304Z,7.90
2018-05-27T03:50:39.821Z,7.70
2018-05-27T03:53:09.352Z,7.70
2018-05-27T03:55:36.997Z,8.43
2018-05-27T03:58:05.418Z,8.90
2018-05-27T04:00:35.109Z,6.93
2018-05-27T04:03:03.517Z,7.17
2018-05-27T04:05:49.203Z,8.33
2018-05-27T04:08:35.164Z,8.27
2018-05-27T04:11:03.251Z,9.97
2018-05-27T04:19:16.976Z,7.23
2018-05-27T04:21:44.774Z,9.10
2018-05-27T04:24:23.448Z,7.67
2018-05-27T04:26:51.584Z,9.50
2018-05-27T04:29:40.335Z,9.80
2018-05-27T04:32:08.011Z,8.10
2018-05-27T04:34:49.349Z,7.87
2018-05-27T04:37:17.036Z,8.27
2018-05-27T04:39:47.785Z,7.90
2018-05-27T04:42:15.847Z,9.50
2018-05-27T04:44:44.017Z,8.30
2018-05-27T04:47:13.175Z,9.00
2018-05-27T04:49:43.737Z,10.13
2018-05-27T04:52:11.381Z,8.37
2018-05-27T04:54:49.988Z,10.70
2018-05-27T04:57:18.762Z,8.87
2018-05-27T04:59:46.453Z,9.30
2018-05-27T05:02:14.159Z,11.60
2018-05-27T05:04:42.230Z,9.23
2018-05-27T05:07:10.651Z,8.70
2018-05-27T05:09:39.503Z,9.83
2018-05-27T05:12:07.939Z,9.30
2018-05-27T05:14:37.610Z,11.83
2018-05-27T05:17:05.286Z,9.90
2018-05-27T05:19:39.994Z,8.50
2018-05-27T05:22:07.703Z,8.77
2018-05-27T05:24:59.950Z,9.50
2018-05-27T05:27:28.072Z,9.40
2018-05-27T05:29:57.816Z,9.50
2018-05-27T05:32:26.362Z,10.87
2018-05-27T05:35:00.379Z,11.73
2018-05-27T05:37:28.812Z,10.00
2018-05-27T05:39:56.540Z,9.63
2018-05-27T05:42:25.024Z,10.67
2018-05-27T05:44:55.149Z,10.47
2018-05-27T05:47:23.545Z,11.17
2018-05-27T05:49:52.134Z,12.40
2018-05-27T05:52:20.213Z,11.40
2018-05-27T05:54:49.072Z,12.07
2018-05-27T05:57:16.863Z,10.47
2018-05-27T05:59:44.581Z,9.87
2018-05-27T06:02:12.248Z,10.60
2018-05-27T06:04:48.835Z,10.93
2018-05-27T06:07:17.625Z,9.90
2018-05-27T06:09:46.564Z,11.70
2018-05-27T06:12:14.995Z,10.73
2018-05-27T06:14:46.187Z,9.60
2018-05-27T06:17:14.606Z,9.33
2018-05-27T06:19:42.440Z,16.63
2018-05-27T06:22:10.113Z,11.73
2018-05-27T06:24:39.343Z,10.13
2018-05-27T06:27:07.157Z,9.27
2018-05-27T06:29:38.041Z,9.77
2018-05-27T06:32:06.550Z,10.07
2018-05-27T06:34:38.615Z,10.83
2018-05-27T06:37:06.335Z,11.17
2018-05-27T06:39:34.225Z,9.90
2018-05-27T06:42:01.877Z,9.83
2018-05-27T06:44:30.814Z,11.50
2018-05-27T06:46:58.513Z,8.83
2018-05-27T06:49:34.647Z,9.77
2018-05-27T06:52:02.340Z,9.10
2018-05-27T06:54:30.569Z,9.30
2018-05-27T06:56:58.211Z,9.40
2018-05-27T06:59:25.937Z,10.70
2018-05-27T07:01:54.400Z,9.60
2018-05-27T07:04:22.940Z,10.93
2018-05-27T07:06:50.635Z,9.23
2018-05-27T07:09:24.908Z,9.37
2018-05-27T07:11:53.730Z,8.73
2018-05-27T07:14:21.829Z,8.23
2018-05-27T07:16:49.957Z,10.37
2018-05-27T07:19:17.710Z,8.83
2018-05-27T07:21:45.360Z,8.70
2018-05-27T07:24:13.985Z,9.77
2018-05-27T07:26:41.664Z,11.20
2018-05-27T07:29:11.194Z,8.77
2018-05-27T07:31:38.983Z,9.23
2018-05-27T07:34:06.735Z,10.33
2018-05-27T07:36:34.392Z,10.07
2018-05-27T07:39:02.171Z,8.20
2018-05-27T07:41:29.845Z,8.47
2018-05-27T07:43:59.659Z,7.73
2018-05-27T07:46:27.303Z,9.47
2018-05-27T07:48:55.803Z,8.27
2018-05-27T07:51:24.565Z,8.93
2018-05-27T07:53:52.329Z,8.90
2018-05-27T07:56:20.135Z,9.53
2018-05-27T07:58:52.441Z,7.10
2018-05-27T08:01:20.131Z,7.17
2018-05-27T08:03:48.177Z,7.90
2018-05-27T08:06:15.887Z,11.63
2018-05-27T08:08:45.539Z,8.73
2018-05-27T08:11:13.749Z,6.90
2018-05-27T08:13:43.983Z,8.17
2018-05-27T08:16:12.266Z,7.93
2018-05-27T08:18:42.445Z,8.00
2018-05-27T08:21:10.500Z,10.43
2018-05-27T08:23:39.531Z,8.83
2018-05-27T08:26:07.163Z,7.23
2018-05-27T08:28:35.246Z,7.73
2018-05-27T08:31:02.923Z,7.57
2018-05-27T08:33:31.762Z,7.60
2018-05-27T08:35:59.391Z,10.30
2018-05-27T08:38:27.299Z,7.87
2018-05-27T08:40:55.737Z,7.83
2018-05-27T08:43:23.967Z,11.77
2018-05-27T08:45:51.727Z,7.70
2018-05-27T08:48:19.447Z,8.47
2018-05-27T08:50:47.869Z,8.27
2018-05-27T08:53:15.684Z,9.70
2018-05-27T08:55:43.334Z,8.60
2018-05-27T08:58:11.399Z,11.07
2018-05-27T09:00:39.075Z,8.37
2018-05-27T09:03:09.956Z,9.87
2018-05-27T09:05:37.859Z,8.60
2018-05-27T09:08:08.939Z,9.47
2018-05-27T09:10:36.610Z,7.60
2018-05-27T09:13:11.356Z,8.23
2018-05-27T09:15:40.673Z,6.80
2018-05-27T09:18:09.162Z,7.03
2018-05-27T09:20:37.614Z,10.47
2018-05-27T09:23:05.842Z,6.93
2018-05-27T09:25:33.500Z,8.47
2018-05-27T09:28:05.552Z,7.17
2018-05-27T09:30:44.468Z,6.77
2018-05-27T09:33:12.547Z,9.43
2018-05-27T09:35:42.102Z,9.20
2018-05-27T09:38:10.620Z,6.03
2018-05-27T09:40:38.359Z,7.33
2018-05-27T09:43:06.503Z,6.57
2018-05-27T09:45:34.257Z,5.33
2018-05-27T09:48:03.059Z,8.63
2018-05-27T09:50:31.735Z,9.10
2018-05-27T09:53:00.119Z,6.10
2018-05-27T09:55:32.384Z,5.53
2018-05-27T09:58:00.129Z,9.20
2018-05-27T10:00:28.184Z,7.27
2018-05-27T10:02:56.667Z,8.57
2018-05-27T10:05:25.363Z,5.53
2018-05-27T10:07:53.012Z,6.20
2018-05-27T10:10:22.063Z,5.57
2018-05-27T10:12:50.508Z,5.00
2018-05-27T10:15:18.784Z,5.57
2018-05-27T10:17:47.200Z,4.93
2018-05-27T10:20:15.825Z,4.80
2018-05-27T10:22:43.515Z,6.93
2018-05-27T10:25:12.939Z,5.27
2018-05-27T10:27:40.596Z,7.63
2018-05-27T10:30:09.643Z,6.03
2018-05-27T10:32:37.766Z,7.30
2018-05-27T10:35:07.218Z,5.67
2018-05-27T10:37:35.237Z,6.23
2018-05-27T10:40:04.870Z,6.80
2018-05-27T10:42:33.280Z,5.97
2018-05-27T10:45:08.355Z,5.27
2018-05-27T10:47:36.026Z,5.73
2018-05-27T10:50:06.912Z,8.20
2018-05-27T10:52:34.605Z,5.17
2018-05-27T10:55:08.303Z,5.47
2018-05-27T10:57:36.132Z,7.60
2018-05-27T11:00:07.503Z,7.00
2018-05-27T11:02:35.205Z,8.27
2018-05-27T11:05:04.375Z,10.20
2018-05-27T11:07:32.418Z,9.43
2018-05-27T11:10:00.090Z,5.23
2018-05-27T11:12:27.773Z,5.07
2018-05-27T11:14:56.195Z,4.70
2018-05-27T11:17:24.748Z,5.57
2018-05-27T11:19:52.389Z,4.80
2018-05-27T11:22:21.477Z,6.13
2018-05-27T11:24:56.580Z,5.60
2018-05-27T11:27:24.369Z,5.10
2018-05-27T11:29:52.046Z,8.43
2018-05-27T11:32:20.862Z,7.03
2018-05-27T11:34:56.422Z,5.73
2018-05-27T11:37:25.359Z,4.70
2018-05-27T11:40:00.050Z,5.40
2018-05-27T11:42:28.558Z,5.37
2018-05-27T11:44:58.384Z,6.00
2018-05-27T11:47:26.003Z,5.17
2018-05-27T11:50:11.086Z,5.20
2018-05-27T11:52:38.730Z,7.20
2018-05-27T11:55:20.237Z,8.50
2018-05-27T11:57:48.643Z,4.93
2018-05-27T12:00:16.301Z,5.07
2018-05-27T12:02:43.976Z,6.63
2018-05-27T12:05:11.613Z,5.23
2018-05-27T12:07:39.682Z,5.47
2018-05-27T12:10:17.283Z,5.40
2018-05-27T12:12:44.932Z,5.43
2018-05-27T12:15:14.579Z,6.53
2018-05-27T12:17:45.865Z,5.00
2018-05-27T12:20:24.280Z,5.07
2018-05-27T12:22:53.071Z,6.43
2018-05-27T12:25:22.499Z,6.70
2018-05-27T12:27:50.183Z,8.87
2018-05-27T12:30:17.839Z,5.27
2018-05-27T12:32:46.835Z,6.37
2018-05-27T12:35:16.344Z,5.33
2018-05-27T12:37:43.971Z,5.90
2018-05-27T12:40:22.629Z,7.47
2018-05-27T12:42:50.722Z,5.63
2018-05-27T12:45:20.196Z,5.30
2018-05-27T12:47:47.975Z,5.17
2018-05-27T12:50:17.643Z,6.13
2018-05-27T12:52:45.298Z,5.57
2018-05-27T12:55:13.936Z,4.93
2018-05-27T12:57:41.569Z,5.07
2018-05-27T13:00:11.336Z,6.80
2018-05-27T13:02:39.742Z,7.30
2018-05-27T13:05:08.186Z,5.33
2018-05-27T13:07:36.672Z,7.40
2018-05-27T13:10:05.527Z,5.13
2018-05-27T13:12:33.165Z,6.47
2018-05-27T13:15:08.793Z,6.77
2018-05-27T13:17:36.434Z,6.27
2018-05-27T13:20:05.603Z,5.20
2018-05-27T13:22:34.041Z,5.13
2018-05-27T13:25:02.253Z,5.03
2018-05-27T13:27:30.314Z,6.53
2018-05-27T13:29:59.995Z,6.60
2018-05-27T13:32:27.774Z,6.03
2018-05-27T13:34:57.175Z,4.93
2018-05-27T13:37:24.825Z,4.07
2018-05-27T13:39:54.502Z,5.37
2018-05-27T13:42:22.902Z,4.83
2018-05-27T13:44:52.138Z,6.10
2018-05-27T13:47:20.565Z,4.83
2018-05-27T13:49:48.969Z,5.30
2018-05-27T13:52:16.777Z,9.67
2018-05-27T13:55:04.192Z,6.67
2018-05-27T13:57:32.669Z,4.90
2018-05-27T14:00:11.175Z,4.60
2018-05-27T14:02:39.641Z,5.07
2018-05-27T14:05:13.466Z,6.17
2018-05-27T14:07:41.108Z,5.77
2018-05-27T14:10:13.612Z,4.87
2018-05-27T14:12:41.263Z,4.43
2018-05-27T14:15:22.579Z,5.43
2018-05-27T14:17:50.665Z,4.43
2018-05-27T14:20:19.071Z,4.93
2018-05-27T14:22:46.727Z,5.17
2018-05-27T14:25:19.003Z,9.23
2018-05-27T14:27:47.031Z,5.27
2018-05-27T14:30:27.335Z,5.87
2018-05-27T14:32:54.998Z,8.37
2018-05-27T14:35:23.708Z,7.07
2018-05-27T14:37:51.356Z,5.80
2018-05-27T14:40:24.651Z,4.83
2018-05-27T14:42:52.270Z,6.63
2018-05-27T14:45:19.993Z,4.43
2018-05-27T14:47:47.652Z,4.57
2018-05-27T14:50:15.376Z,5.27
2018-05-27T14:52:43.018Z,5.13
2018-05-27T14:55:12.669Z,5.07
2018-05-27T14:57:40.320Z,5.40
2018-05-27T15:00:09.002Z,5.20
2018-05-27T15:02:36.654Z,5.93
2018-05-27T15:05:05.119Z,6.17
2018-05-27T15:07:32.854Z,5.90
2018-05-27T15:10:02.332Z,5.33
2018-05-27T15:12:30.380Z,4.73
2018-05-27T15:15:02.194Z,6.70
2018-05-27T15:17:30.261Z,6.13
2018-05-27T15:20:02.088Z,6.53
2018-05-27T15:22:30.929Z,5.03
2018-05-27T15:24:58.614Z,7.30
2018-05-27T15:27:26.376Z,4.50
2018-05-27T15:29:56.916Z,7.87
2018-05-27T15:32:24.574Z,4.40
2018-05-27T15:34:58.046Z,5.87
2018-05-27T15:37:25.685Z,6.80
2018-05-27T15:42:47.972Z,7.47
2018-05-27T15:45:15.645Z,7.93
2018-05-27T15:47:43.412Z,6.33
2018-05-27T15:50:11.108Z,6.27
2018-05-27T15:52:49.094Z,5.23
2018-05-27T15:55:16.738Z,5.57
2018-05-27T15:58:04.490Z,5.37
2018-05-27T16:00:32.133Z,5.63
2018-05-27T16:03:04.116Z,5.70
2018-05-27T16:05:31.739Z,6.60
2018-05-27T16:08:01.497Z,4.87
2018-05-27T16:10:29.150Z,7.73
2018-05-27T16:13:02.714Z,5.00
2018-05-27T16:15:30.794Z,5.20
2018-05-27T16:17:59.474Z,6.77
2018-05-27T16:20:27.163Z,6.63
2018-05-27T16:23:00.674Z,5.23
2018-05-27T16:25:28.394Z,5.10
2018-05-27T16:27:56.083Z,7.47
2018-05-27T16:30:23.736Z,6.73
2018-05-27T16:32:56.552Z,6.63
2018-05-27T16:35:24.177Z,4.37
2018-05-27T16:37:52.853Z,5.57
2018-05-27T16:40:20.503Z,5.43
2018-05-27T16:42:53.632Z,5.03
2018-05-27T16:45:21.330Z,5.90
2018-05-27T16:47:50.721Z,8.00
2018-05-27T16:50:18.358Z,5.00
2018-05-27T16:52:56.031Z,8.37
2018-05-27T16:55:23.832Z,5.33
2018-05-27T16:57:52.875Z,4.93
2018-05-27T17:00:20.914Z,6.17
2018-05-27T17:05:43.941Z,9.13
2018-05-27T17:08:11.612Z,5.20
2018-05-27T17:10:41.436Z,8.63
2018-05-27T17:13:09.087Z,8.33
2018-05-27T17:15:36.732Z,4.83
2018-05-27T17:18:05.189Z,8.70
2018-05-27T17:20:37.542Z,7.80
2018-05-27T17:23:05.958Z,6.20
2018-05-27T17:25:38.066Z,6.40
2018-05-27T17:28:05.729Z,5.80
2018-05-27T17:30:36.397Z,5.53
2018-05-27T17:33:04.519Z,6.13
2018-05-27T17:35:32.152Z,6.20
2018-05-27T17:38:01.153Z,8.87
2018-05-27T17:40:29.956Z,6.17
2018-05-27T17:42:58.363Z,5.17
2018-05-27T17:45:28.045Z,6.07
2018-05-27T17:47:55.723Z,6.37
2018-05-27T17:50:26.550Z,5.07
2018-05-27T17:52:54.196Z,5.20
2018-05-27T17:55:21.878Z,5.23
2018-05-27T17:57:49.914Z,8.30
2018-05-27T18:00:34.934Z,4.00
2018-05-27T18:03:02.603Z,7.30
2018-05-27T18:05:31.009Z,7.13
2018-05-27T18:07:58.698Z,4.90
2018-05-27T18:13:28.084Z,5.87
2018-05-27T18:15:55.737Z,4.20
2018-05-27T18:18:43.460Z,6.47
2018-05-27T18:21:11.874Z,6.03
2018-05-27T18:23:41.309Z,4.60
2018-05-27T18:26:08.982Z,4.60
2018-05-27T18:28:37.676Z,4.77
2018-05-27T18:31:05.343Z,4.67
2018-05-27T18:33:44.211Z,5.57
2018-05-27T18:36:11.904Z,5.30
2018-05-27T18:41:33.638Z,4.77
2018-05-27T18:44:01.281Z,4.90
2018-05-27T18:46:33.495Z,5.67
2018-05-27T18:49:01.141Z,5.13
2018-05-27T18:51:32.139Z,8.53
2018-05-27T18:53:59.827Z,6.20
2018-05-27T18:56:38.504Z,5.10
2018-05-27T18:59:06.625Z,5.67
2018-05-27T19:01:42.000Z,7.60
2018-05-27T19:04:10.459Z,7.80
2018-05-27T19:06:45.439Z,5.03
2018-05-27T19:09:13.169Z,4.63
2018-05-27T19:11:49.991Z,6.03
2018-05-27T19:14:17.647Z,5.47
2018-05-27T19:17:02.061Z,4.97
2018-05-27T19:19:29.727Z,6.47
2018-05-27T19:22:01.452Z,8.83
2018-05-27T19:24:29.107Z,7.80
2018-05-27T19:27:00.814Z,10.57
2018-05-27T19:29:29.246Z,8.33
2018-05-27T19:32:11.154Z,7.50
2018-05-27T19:34:41.040Z,6.47
2018-05-27T19:37:14.893Z,6.03
2018-05-27T19:39:42.943Z,5.30
2018-05-27T19:42:11.430Z,6.47
2018-05-27T19:44:39.497Z,9.40
2018-05-27T19:47:12.136Z,6.07
2018-05-27T19:49:39.787Z,8.50
2018-05-27T19:52:28.477Z,5.80
2018-05-27T19:54:56.231Z,7.90
2018-05-27T19:57:30.468Z,6.20
2018-05-27T19:59:58.097Z,6.80
2018-05-27T20:02:27.760Z,9.00
2018-05-27T20:04:56.932Z,7.50
2018-05-27T20:07:31.791Z,6.10
2018-05-27T20:09:59.982Z,7.00
2018-05-27T20:12:27.674Z,7.07
2018-05-27T20:14:56.105Z,5.47
2018-05-27T20:17:30.549Z,6.10
2018-05-27T20:19:58.166Z,7.13
2018-05-27T20:22:28.358Z,7.40
2018-05-27T20:24:56.011Z,6.87
2018-05-27T20:27:27.389Z,6.20
2018-05-27T20:29:55.063Z,6.87
2018-05-27T20:32:24.273Z,6.63
2018-05-27T20:34:52.736Z,8.13
2018-05-27T20:37:40.142Z,6.67
2018-05-27T20:40:07.818Z,7.20
2018-05-27T20:42:36.231Z,7.30
2018-05-27T20:45:04.700Z,7.47
2018-05-27T20:47:33.130Z,9.60
2018-05-27T20:50:01.734Z,7.80
2018-05-27T20:52:30.902Z,7.20
2018-05-27T20:54:58.943Z,6.53
2018-05-27T20:57:34.809Z,6.53
2018-05-27T21:00:02.451Z,15.07
2018-05-27T21:02:50.830Z,11.10
2018-05-27T21:05:18.483Z,7.10
2018-05-27T21:07:47.117Z,6.97
2018-05-27T21:10:14.779Z,7.47
2018-05-27T21:12:45.016Z,7.93
2018-05-27T21:15:13.067Z,9.53
2018-05-27T21:17:41.148Z,9.70
2018-05-27T21:20:09.204Z,8.93
2018-05-27T21:22:45.197Z,8.30
2018-05-27T21:25:13.674Z,9.10
2018-05-27T21:27:44.044Z,8.43
2018-05-27T21:30:11.846Z,9.37
2018-05-27T21:32:43.763Z,7.97
2018-05-27T21:35:11.431Z,8.47
2018-05-27T21:37:40.144Z,8.97
2018-05-27T21:40:08.164Z,8.13
2018-05-27T21:42:36.286Z,9.40
2018-05-27T21:45:04.359Z,8.67
2018-05-27T21:47:34.030Z,8.40
2018-05-27T21:50:02.645Z,8.50
2018-05-27T21:52:31.084Z,9.20
2018-05-27T21:54:59.531Z,8.93
2018-05-27T21:57:28.575Z,8.60
2018-05-27T21:59:56.247Z,8.73
2018-05-27T22:02:24.920Z,9.10
2018-05-27T22:04:52.624Z,10.53
2018-05-27T22:07:21.647Z,8.70
2018-05-27T22:09:49.716Z,9.37
2018-05-27T22:12:21.245Z,8.60
2018-05-27T22:14:49.342Z,11.53
2018-05-27T22:17:18.915Z,9.23
2018-05-27T22:19:46.698Z,12.63
2018-05-27T22:22:15.124Z,9.97
2018-05-27T22:24:43.548Z,9.07
2018-05-27T22:27:13.240Z,9.93
2018-05-27T22:29:41.637Z,14.63
2018-05-27T22:32:11.333Z,7.93
2018-05-27T22:34:39.381Z,9.03
2018-05-27T22:37:08.499Z,9.03
2018-05-27T22:39:36.575Z,11.03
2018-05-27T22:42:11.430Z,9.10
2018-05-27T22:44:39.871Z,9.57
2018-05-27T22:47:11.301Z,8.57
2018-05-27T22:49:40.601Z,11.90
2018-05-27T22:52:11.524Z,9.90
2018-05-27T22:54:39.210Z,9.77
2018-05-27T22:57:07.676Z,9.03
2018-05-27T22:59:36.167Z,8.57
2018-05-27T23:02:04.331Z,9.50
2018-05-27T23:04:31.977Z,8.33
2018-05-27T23:07:04.315Z,10.13
2018-05-27T23:09:32.755Z,11.57
2018-05-27T23:12:12.900Z,9.30
2018-05-27T23:14:40.573Z,9.63
2018-05-27T23:17:12.778Z,10.20
2018-05-27T23:19:40.488Z,9.83
2018-05-27T23:22:15.795Z,9.83
2018-05-27T23:24:44.265Z,10.17
2018-05-27T23:27:18.560Z,9.30
2018-05-27T23:29:46.214Z,10.77
2018-05-27T23:32:14.636Z,9.73
2018-05-27T23:34:43.094Z,9.63
2018-05-27T23:37:11.623Z,10.00
2018-05-27T23:39:39.289Z,11.17
2018-05-27T23:42:06.948Z,10.23
2018-05-27T23:44:34.604Z,9.10
2018-05-27T23:47:07.165Z,9.03
2018-05-27T23:49:36.018Z,9.27
2018-05-27T23:52:07.482Z,9.83
2018-05-27T23:54:35.541Z,9.33
2018-05-27T23:57:06.593Z,9.90
2018-05-27T23:59:34.240Z,10.60
